This is the latest recevied weather packets stored in our database for station/object KB9PVH-8. If no packets are shown the sender has not sent any weather packets the latest 10 day(s).
| Time | Temp. | Humidity | Pressure | Rain* | Wind** | Luminosity | Snow |
|---|---|---|---|---|---|---|---|
| 1788134425 | 22.78° C | - | - | 0 mm | 0.45 m/s, ° | - | - |
| 1788134229 | 22.78° C | - | - | 0 mm | 0.45 m/s, ° | - | - |
| 1788133389 | 22.78° C | - | - | 0 mm | 0.89 m/s, ° | - | - |
| 1788132551 | 23.33° C | - | - | 0 mm | 1.79 m/s, ° | - | - |
| 1788131679 | 23.89° C | - | - | 0 mm | 3.13 m/s, ° | - | - |
| 1788130928 | 23.89° C | - | - | 0 mm | 3.13 m/s, ° | - | - |
| 1788130839 | 23.89° C | - | - | 0 mm | 3.13 m/s, ° | - | - |
| 1788130237 | 23.89° C | - | - | 0 mm | 4.92 m/s, ° | - | - |
| 1788129999 | 23.89° C | - | - | 0 mm | 4.92 m/s, ° | - | - |
| 1788129159 | 23.89° C | - | - | 0 mm | 3.58 m/s, ° | - | - |
| 1788128324 | 23.89° C | - | - | 0 mm | 4.92 m/s, ° | - | - |
| 1788127622 | 23.89° C | - | - | 0 mm | 5.81 m/s, ° | - | - |
| 1788127479 | 23.89° C | - | - | 0 mm | 5.81 m/s, ° | - | - |
| 1788112302 | 28.33° C | - | - | 0 mm | 26.38 m/s, ° | - | - |
| 1788111510 | 28.89° C | - | - | 0 mm | 21.46 m/s, ° | - | - |
| 1788111459 | 28.89° C | - | - | 0 mm | 21.46 m/s, ° | - | - |
| 1788109779 | 28.33° C | - | - | 0 mm | 35.32 m/s, ° | - | - |
| 1788108939 | 27.78° C | - | - | 0 mm | 33.53 m/s, ° | - | - |
| 1788106540 | 27.78° C | - | - | 0 mm | 33.08 m/s, ° | - | - |
| 1788106419 | 27.78° C | - | - | 0 mm | 33.08 m/s, ° | - | - |
| 1788105724 | 27.78° C | - | - | 0 mm | 30.4 m/s, ° | - | - |
| 1788105579 | 27.78° C | - | - | 0 mm | 30.4 m/s, ° | - | - |
| 1788104979 | 27.22° C | - | - | 0 mm | 29.5 m/s, ° | - | - |
| 1788104752 | 27.22° C | - | - | 0 mm | 29.5 m/s, ° | - | - |
| 1788103059 | 26.67° C | - | - | 0 mm | 18.78 m/s, ° | - | - |
* Rain latest hour (hover to see other rain measurements)
** Current wind speed in m/s (hover to see current wind gust speed)